Time;durP1;ratioP1;P1;durP2;ratioP2;P2;SDS_P1;SDS_P2;PMS_P1;PMS_P2;Temp;Humidity;BMP_temperature;BMP_pressure;BME280_temperature;BME280_humidity;BME280_pressure;Samples;Min_cycle;Max_cycle;Signal;HPM_P1;HPM_P2
2021/08/30 00:01:42;;;;;;;9.85;6.92;;;;;;;21.39;71.92;99746.84;1713162;82;21520;-68
2021/08/30 00:04:09;;;;;;;11.60;7.53;;;;;;;21.36;72.17;99754.47;1717104;82;21070;-71
2021/08/30 00:06:35;;;;;;;10.48;7.10;;;;;;;21.32;72.64;99750.05;1658085;85;22005;-69
2021/08/30 00:09:01;;;;;;;12.35;7.53;;;;;;;21.30;72.79;99750.27;1619862;84;21078;-69
2021/08/30 00:11:28;;;;;;;12.28;7.40;;;;;;;21.24;73.03;99744.92;1648265;85;22208;-68
2021/08/30 00:13:54;;;;;;;8.73;6.95;;;;;;;21.25;73.18;99747.88;1631727;85;21204;-68
2021/08/30 00:16:22;;;;;;;11.95;7.17;;;;;;;21.25;73.23;99744.71;1666317;85;21065;-69
2021/08/30 00:18:49;;;;;;;9.80;6.17;;;;;;;21.29;73.22;99740.58;1678036;83;21142;-76
2021/08/30 00:21:17;;;;;;;12.40;6.90;;;;;;;21.36;73.08;99742.42;1690789;82;21029;-69
2021/08/30 00:23:43;;;;;;;10.75;6.80;;;;;;;21.44;73.00;99740.87;1706922;82;21104;-69
2021/08/30 00:26:10;;;;;;;9.20;6.08;;;;;;;21.47;72.49;99733.80;1682951;82;21042;-74
2021/08/30 00:28:37;;;;;;;11.70;6.47;;;;;;;21.45;72.13;99733.97;1693678;83;21569;-68
2021/08/30 00:31:05;;;;;;;11.12;6.92;;;;;;;21.41;72.01;99739.95;1688547;82;21051;-68
2021/08/30 00:33:32;;;;;;;12.50;6.60;;;;;;;21.34;72.13;99743.45;1708303;82;21073;-71
2021/08/30 00:36:00;;;;;;;12.53;6.15;;;;;;;21.35;71.98;99741.61;1705673;82;21110;-75
2021/08/30 00:38:26;;;;;;;10.18;6.28;;;;;;;21.40;71.88;99739.63;1710479;82;20998;-68
2021/08/30 00:40:54;;;;;;;11.33;6.10;;;;;;;21.42;71.77;99737.59;1711967;82;21568;-71
2021/08/30 00:43:21;;;;;;;10.45;7.17;;;;;;;21.47;71.78;99737.81;1687102;82;21091;-69
2021/08/30 00:45:47;;;;;;;8.23;6.28;;;;;;;21.49;71.55;99734.39;1713858;82;21012;-70
2021/08/30 00:48:13;;;;;;;11.15;6.85;;;;;;;21.47;71.42;99733.27;1712456;82;21723;-71
2021/08/30 00:50:40;;;;;;;9.00;6.50;;;;;;;21.45;71.61;99735.31;1686698;82;21077;-68
2021/08/30 00:53:06;;;;;;;7.80;5.75;;;;;;;21.48;71.36;99732.22;1716602;82;21835;-70
2021/08/30 00:55:34;;;;;;;11.43;6.55;;;;;;;21.53;71.02;99732.93;1716897;80;21137;-68
2021/08/30 00:58:01;;;;;;;8.15;5.28;;;;;;;21.58;70.87;99735.80;1747259;80;21066;-67
2021/08/30 01:00:28;;;;;;;8.50;6.22;;;;;;;21.63;70.74;99737.33;1748678;80;21026;-68
2021/08/30 01:02:54;;;;;;;9.45;6.17;;;;;;;21.67;70.50;99739.90;1744769;80;21070;-70
2021/08/30 01:05:20;;;;;;;7.80;5.95;;;;;;;21.64;70.34;99745.67;1747504;80;21034;-70
2021/08/30 01:08:16;;;;;;;9.98;6.33;;;;;;;21.58;70.33;99741.15;1742646;80;21966;-68
2021/08/30 01:10:59;;;;;;;10.60;6.30;;;;;;;21.55;70.35;99750.94;1714903;81;21564;-68
2021/08/30 01:13:38;;;;;;;10.05;6.58;;;;;;;21.53;70.21;99739.63;1740038;81;21147;-74
2021/08/30 01:16:06;;;;;;;11.40;6.35;;;;;;;21.53;70.18;99743.64;1718253;81;21067;-78
2021/08/30 01:18:34;;;;;;;11.65;6.37;;;;;;;21.54;70.01;99730.57;1715483;81;21072;-67
2021/08/30 01:21:24;;;;;;;10.23;6.60;;;;;;;21.53;70.13;99742.30;1746327;80;21965;-67
2021/08/30 01:24:09;;;;;;;11.40;7.55;;;;;;;21.51;70.03;99722.43;1717731;80;21533;-78
2021/08/30 01:26:45;;;;;;;9.93;6.87;;;;;;;21.44;70.29;99720.80;1735799;80;21099;-67
2021/08/30 01:29:45;;;;;;;9.30;6.15;;;;;;;21.36;70.29;99733.06;1717453;81;21031;-67
2021/08/30 01:32:34;;;;;;;6.87;5.03;;;;;;;21.29;70.39;99727.20;1741937;80;21141;-69
2021/08/30 01:35:04;;;;;;;10.23;5.95;;;;;;;21.30;70.31;99728.02;1744384;80;22386;-71
2021/08/30 01:37:32;;;;;;;10.63;6.90;;;;;;;21.30;70.21;99732.02;1746235;80;21121;-75
2021/08/30 01:39:58;;;;;;;9.48;6.17;;;;;;;21.29;70.09;99732.55;1744828;80;22185;-66
2021/08/30 01:42:25;;;;;;;11.48;6.30;;;;;;;21.31;70.16;99734.49;1747803;80;21019;-70
2021/08/30 01:44:53;;;;;;;12.20;6.45;;;;;;;21.34;70.20;99739.43;1721474;80;21075;-70
2021/08/30 01:47:19;;;;;;;10.88;6.97;;;;;;;21.37;70.28;99737.36;1744304;80;21127;-67
2021/08/30 01:49:49;;;;;;;10.05;5.83;;;;;;;21.35;70.09;99734.92;1721341;81;21028;-67
2021/08/30 01:52:14;;;;;;;8.78;5.72;;;;;;;21.35;69.94;99730.91;1689588;81;21072;-69
2021/08/30 01:54:40;;;;;;;12.05;6.37;;;;;;;21.38;70.07;99741.17;1738842;80;21544;-67
2021/08/30 01:57:07;;;;;;;10.78;6.05;;;;;;;21.41;70.06;99748.78;1718423;81;21060;-72
2021/08/30 02:02:19;;;;;;;13.25;6.97;;;;;;;21.45;69.95;99753.20;1734531;80;21016;-68
2021/08/30 02:04:45;;;;;;;10.32;6.33;;;;;;;21.42;70.02;99749.10;1724534;81;21066;-66
2021/08/30 02:07:11;;;;;;;9.30;6.60;;;;;;;21.36;70.11;99757.95;1734510;80;21043;-73
2021/08/30 02:09:38;;;;;;;11.90;6.70;;;;;;;21.34;70.34;99756.83;1711940;80;21042;-73
2021/08/30 02:12:05;;;;;;;8.55;6.12;;;;;;;21.36;70.37;99761.16;1736896;80;21528;-68
2021/08/30 02:14:32;;;;;;;8.48;6.03;;;;;;;21.40;70.15;99765.05;1738113;80;21492;-66
2021/08/30 02:17:02;;;;;;;13.48;6.78;;;;;;;21.43;69.98;99768.65;1733342;80;22319;-68
2021/08/30 02:19:32;;;;;;;9.70;6.65;;;;;;;21.40;70.06;99769.91;1732910;80;21067;-68
2021/08/30 02:22:02;;;;;;;10.82;6.20;;;;;;;21.37;70.19;99781.52;1710234;82;21050;-67
2021/08/30 02:24:42;;;;;;;11.60;6.45;;;;;;;21.36;70.22;99783.91;1715914;80;21584;-71
2021/08/30 02:27:15;;;;;;;11.93;6.80;;;;;;;21.36;69.96;99784.72;1736590;80;21074;-67
2021/08/30 02:30:18;;;;;;;9.35;6.40;;;;;;;21.32;69.92;99786.17;1737416;80;21067;-67
2021/08/30 02:32:46;;;;;;;11.90;6.40;;;;;;;21.26;70.18;99789.15;1735865;80;21699;-68
2021/08/30 02:35:16;;;;;;;12.05;6.90;;;;;;;21.25;70.25;99785.34;1730863;80;21043;-69
2021/08/30 02:37:43;;;;;;;11.33;6.87;;;;;;;21.27;70.28;99779.29;1712238;80;21149;-67
2021/08/30 02:40:12;;;;;;;10.78;6.53;;;;;;;21.22;70.12;99779.91;1735335;80;21137;-68
2021/08/30 02:42:38;;;;;;;12.30;6.33;;;;;;;21.13;70.26;99781.97;1734571;80;22163;-67
2021/08/30 02:45:07;;;;;;;9.75;6.20;;;;;;;21.11;70.28;99782.67;1736256;80;21724;-69
2021/08/30 02:47:35;;;;;;;14.25;6.53;;;;;;;21.10;70.26;99788.26;1734681;80;21050;-68
2021/08/30 02:50:02;;;;;;;14.85;6.33;;;;;;;21.08;70.22;99784.94;1737467;80;21148;-68
2021/08/30 02:52:29;;;;;;;10.95;6.83;;;;;;;21.07;70.29;99783.31;1731470;80;21114;-67
2021/08/30 02:54:55;;;;;;;10.25;6.22;;;;;;;20.99;70.45;99783.52;1734241;80;21254;-67
2021/08/30 02:57:22;;;;;;;14.13;6.95;;;;;;;20.92;70.61;99784.85;1735580;80;21039;-75
2021/08/30 02:59:51;;;;;;;10.60;5.90;;;;;;;20.88;70.84;99788.45;1736313;80;21013;-72
2021/08/30 03:02:19;;;;;;;7.83;5.80;;;;;;;20.89;70.80;99782.06;1731890;80;21156;-67
2021/08/30 03:04:45;;;;;;;8.30;5.92;;;;;;;20.88;70.85;99781.77;1736857;80;21431;-74
2021/08/30 03:07:12;;;;;;;10.60;6.08;;;;;;;20.89;70.99;99774.04;1715588;81;21521;-68
2021/08/30 03:09:38;;;;;;;10.40;6.90;;;;;;;20.89;71.00;99778.05;1733540;80;21099;-71
2021/08/30 03:12:06;;;;;;;8.63;5.72;;;;;;;20.85;71.04;99772.00;1711613;81;21652;-68
2021/08/30 03:14:33;;;;;;;9.63;6.00;;;;;;;20.81;71.01;99772.90;1720757;81;21219;-67
2021/08/30 03:17:01;;;;;;;9.65;6.25;;;;;;;20.78;71.01;99776.01;1735060;80;21048;-64
2021/08/30 03:19:28;;;;;;;8.55;5.70;;;;;;;20.80;70.99;99775.28;1739268;80;21059;-70
2021/08/30 03:21:55;;;;;;;9.18;5.65;;;;;;;20.85;71.10;99771.48;1739134;80;21501;-69
2021/08/30 03:24:21;;;;;;;8.85;6.00;;;;;;;20.94;71.02;99771.56;1715467;81;21067;-71
2021/08/30 03:26:49;;;;;;;10.08;6.50;;;;;;;21.04;70.66;99775.70;1732355;80;22717;-70
2021/08/30 03:29:16;;;;;;;10.68;6.40;;;;;;;21.09;70.52;99778.58;1711177;81;21047;-71
2021/08/30 03:31:43;;;;;;;10.40;5.92;;;;;;;21.10;70.36;99782.38;1731952;80;21957;-72
2021/08/30 03:34:10;;;;;;;10.95;6.17;;;;;;;21.11;70.06;99780.52;1736856;80;21032;-72
2021/08/30 03:36:36;;;;;;;9.23;5.87;;;;;;;21.14;69.70;99780.11;1739813;80;21053;-78
2021/08/30 03:39:03;;;;;;;9.63;7.10;;;;;;;21.18;69.71;99788.02;1736666;80;23316;-77
2021/08/30 03:41:31;;;;;;;11.12;6.12;;;;;;;21.22;69.24;99783.91;1717843;81;21063;-66
2021/08/30 03:43:58;;;;;;;11.88;8.00;;;;;;;21.22;69.27;99789.27;1734544;80;21076;-73
2021/08/30 03:46:24;;;;;;;9.88;7.42;;;;;;;21.18;69.19;99781.86;1715169;80;21084;-69
2021/08/30 03:48:50;;;;;;;12.60;7.45;;;;;;;21.16;69.49;99778.05;1734608;80;21744;-67
2021/08/30 03:51:17;;;;;;;10.58;6.40;;;;;;;21.15;69.61;99777.76;1737283;80;21078;-74
2021/08/30 03:53:44;;;;;;;8.93;6.67;;;;;;;21.17;69.35;99768.19;1735780;80;22205;-68
2021/08/30 03:56:11;;;;;;;10.68;7.20;;;;;;;21.20;69.08;99764.58;1736123;80;21066;-68
2021/08/30 03:58:37;;;;;;;12.93;8.10;;;;;;;21.23;68.98;99770.86;1709604;81;21066;-69
2021/08/30 04:01:06;;;;;;;12.90;6.58;;;;;;;21.26;69.07;99779.78;1742158;80;21058;-79
2021/08/30 04:03:38;;;;;;;11.15;6.62;;;;;;;21.28;68.94;99777.75;1707160;82;21079;-73
2021/08/30 04:06:06;;;;;;;9.08;6.58;;;;;;;21.28;68.60;99786.27;1740384;80;21534;-73
2021/08/30 04:08:33;;;;;;;14.43;6.60;;;;;;;21.23;68.76;99784.23;1710771;80;21050;-75
2021/08/30 04:11:00;;;;;;;13.08;6.50;;;;;;;21.25;68.87;99784.00;1734910;80;22139;-69
2021/08/30 04:13:27;;;;;;;12.25;6.60;;;;;;;21.31;68.87;99781.32;1740413;80;21105;-68
2021/08/30 04:15:53;;;;;;;8.78;6.20;;;;;;;21.38;68.57;99777.82;1708570;82;21208;-67
2021/08/30 04:18:20;;;;;;;10.63;6.28;;;;;;;21.42;68.45;99784.42;1737236;80;21518;-68
2021/08/30 04:20:48;;;;;;;12.43;7.37;;;;;;;21.46;68.33;99777.60;1735796;80;21039;-72
2021/08/30 04:23:15;;;;;;;9.48;6.30;;;;;;;21.48;68.21;99779.58;1735103;80;21110;-67
2021/08/30 04:25:42;;;;;;;14.47;7.00;;;;;;;21.49;67.98;99774.55;1738648;80;21085;-71
2021/08/30 04:28:08;;;;;;;9.88;6.65;;;;;;;21.49;68.04;99769.19;1740759;81;21140;-70
2021/08/30 04:30:36;;;;;;;13.85;7.15;;;;;;;21.55;67.93;99767.00;1737072;80;21042;-67
2021/08/30 04:33:02;;;;;;;8.98;6.60;;;;;;;21.59;67.72;99769.58;1739798;80;21597;-66
2021/08/30 04:35:29;;;;;;;12.88;7.30;;;;;;;21.64;67.42;99763.60;1706723;81;21066;-70
2021/08/30 04:37:56;;;;;;;9.50;6.67;;;;;;;21.64;67.46;99767.09;1738954;80;21109;-67
2021/08/30 04:40:22;;;;;;;9.23;6.47;;;;;;;21.64;67.63;99776.45;1735771;80;21755;-67
2021/08/30 04:42:49;;;;;;;12.65;7.33;;;;;;;21.68;67.64;99788.91;1739372;80;21097;-70
2021/08/30 04:45:16;;;;;;;10.75;6.40;;;;;;;21.70;67.45;99794.87;1734247;80;21501;-64
2021/08/30 04:47:42;;;;;;;12.20;6.92;;;;;;;21.77;67.23;99805.56;1739147;80;21518;-68
2021/08/30 04:50:11;;;;;;;9.95;6.17;;;;;;;21.86;66.86;99800.30;1735916;80;21533;-68
2021/08/30 04:52:37;;;;;;;9.95;6.47;;;;;;;21.92;66.46;99771.30;1742114;80;21345;-69
2021/08/30 04:55:06;;;;;;;11.40;7.20;;;;;;;21.90;66.32;99714.45;1737572;80;21050;-75
2021/08/30 04:57:32;;;;;;;11.35;7.00;;;;;;;21.80;66.43;99682.78;1746284;80;21102;-74
2021/08/30 05:00:00;;;;;;;11.33;7.65;;;;;;;21.64;66.88;99737.64;1744354;80;21522;-74
2021/08/30 05:02:27;;;;;;;12.73;6.55;;;;;;;21.55;67.49;99795.10;1712153;80;21127;-71
2021/08/30 05:04:55;;;;;;;11.88;6.60;;;;;;;21.49;67.53;99818.19;1737474;80;22071;-73
2021/08/30 05:07:22;;;;;;;15.70;6.67;;;;;;;21.49;67.66;99802.65;1741539;80;21623;-67
2021/08/30 05:21:39;;;;;;;10.53;6.37;;;;;;;23.43;63.60;99782.28;1853046;75;23017;-59
2021/08/30 05:24:09;;;;;;;11.50;7.67;;;;;;;23.55;62.26;99791.27;1822110;76;20967;-57
2021/08/30 05:26:36;;;;;;;12.65;7.20;;;;;;;23.48;62.01;99787.80;1800329;77;21166;-58
2021/08/30 05:29:03;;;;;;;12.47;7.00;;;;;;;23.43;62.16;99789.52;1797980;77;21533;-58
2021/08/30 05:31:29;;;;;;;11.60;7.40;;;;;;;23.36;61.98;99789.59;1822828;76;21061;-59
2021/08/30 05:34:00;;;;;;;12.50;6.97;;;;;;;23.26;62.10;99786.06;1821862;76;21057;-63
2021/08/30 05:36:26;;;;;;;10.48;7.12;;;;;;;23.12;62.12;99783.22;1799950;76;21117;-62
2021/08/30 05:38:53;;;;;;;9.88;6.22;;;;;;;22.99;62.08;99772.84;1796826;77;21175;-62
2021/08/30 05:41:19;;;;;;;10.10;7.33;;;;;;;22.90;62.05;99770.68;1797442;77;21525;-60
2021/08/30 05:43:46;;;;;;;15.13;7.28;;;;;;;22.83;62.20;99757.32;1823652;76;21002;-58
2021/08/30 05:46:15;;;;;;;11.70;7.70;;;;;;;22.78;62.20;99758.50;1809436;77;21054;-58
2021/08/30 05:48:40;;;;;;;11.55;7.83;;;;;;;22.72;62.61;99753.99;1821932;76;21460;-59
2021/08/30 05:51:07;;;;;;;14.55;7.75;;;;;;;22.68;62.76;99752.77;1822800;76;21113;-61
2021/08/30 05:53:34;;;;;;;10.23;7.20;;;;;;;22.62;62.54;99746.42;1820358;76;21140;-59
2021/08/30 05:56:00;;;;;;;12.47;7.25;;;;;;;22.58;63.10;99755.95;1819366;76;21100;-59
2021/08/30 05:58:26;;;;;;;10.85;7.55;;;;;;;22.62;63.71;99772.71;1819041;76;21094;-59
2021/08/30 06:00:53;;;;;;;13.30;8.60;;;;;;;22.76;62.75;99769.94;1786210;77;22293;-61
2021/08/30 06:03:19;;;;;;;12.63;8.43;;;;;;;22.84;62.70;99766.17;1822110;76;21453;-60
2021/08/30 06:05:46;;;;;;;12.68;7.42;;;;;;;22.87;62.70;99753.67;1818553;76;21078;-60
2021/08/30 06:08:13;;;;;;;12.55;8.00;;;;;;;22.86;62.66;99754.70;1821941;76;21536;-60
2021/08/30 06:10:39;;;;;;;12.23;8.08;;;;;;;22.82;62.66;99752.45;1824537;76;21029;-58
2021/08/30 06:13:06;;;;;;;13.95;7.90;;;;;;;22.84;62.89;99746.88;1807602;77;22620;-58
2021/08/30 06:15:32;;;;;;;12.37;7.62;;;;;;;22.86;62.50;99742.63;1823003;76;21157;-60
2021/08/30 06:17:58;;;;;;;14.85;8.33;;;;;;;22.93;62.33;99739.37;1822526;76;21351;-58
2021/08/30 06:20:25;;;;;;;14.95;7.60;;;;;;;23.02;62.57;99738.59;1820377;76;21057;-58
2021/08/30 06:22:51;;;;;;;11.30;7.45;;;;;;;23.07;62.08;99741.47;1822239;76;21054;-59
2021/08/30 06:25:18;;;;;;;11.08;8.18;;;;;;;23.10;61.88;99734.29;1795939;76;21079;-56
2021/08/30 06:27:45;;;;;;;11.03;8.20;;;;;;;23.16;61.29;99728.05;1826310;76;21534;-58
2021/08/30 06:30:12;;;;;;;17.37;8.45;;;;;;;23.22;60.83;99723.64;1819338;76;21370;-56
2021/08/30 06:32:39;;;;;;;12.93;8.45;;;;;;;23.23;60.93;99725.30;1822336;76;21648;-58
2021/08/30 06:35:07;;;;;;;13.72;8.23;;;;;;;23.25;60.66;99721.86;1825352;76;21128;-58
2021/08/30 06:37:34;;;;;;;14.15;7.80;;;;;;;23.30;60.45;99727.39;1822627;76;21058;-58
2021/08/30 06:40:01;;;;;;;13.78;8.15;;;;;;;23.38;60.41;99732.47;1825276;76;23260;-58
2021/08/30 06:42:27;;;;;;;13.28;9.08;;;;;;;23.44;60.42;99730.23;1802094;76;21055;-58
2021/08/30 06:44:53;;;;;;;14.83;8.63;;;;;;;23.47;59.93;99732.48;1818504;76;21410;-58
2021/08/30 06:47:20;;;;;;;11.88;8.48;;;;;;;23.49;59.93;99731.73;1821614;76;21100;-58
2021/08/30 06:49:47;;;;;;;12.53;8.55;;;;;;;23.53;59.59;99724.05;1791167;76;21062;-58
2021/08/30 06:52:15;;;;;;;11.10;8.80;;;;;;;23.55;59.24;99725.47;1822350;76;22417;-57
2021/08/30 06:54:41;;;;;;;11.35;8.75;;;;;;;23.56;59.52;99731.12;1820762;76;21038;-57
2021/08/30 06:57:08;;;;;;;12.55;7.90;;;;;;;23.59;59.39;99733.06;1793688;78;21067;-59
2021/08/30 06:59:34;;;;;;;13.22;9.15;;;;;;;23.60;59.49;99732.03;1786458;77;21611;-59
2021/08/30 07:02:01;;;;;;;13.90;9.10;;;;;;;23.66;59.21;99732.48;1822176;76;21113;-59
2021/08/30 07:04:27;;;;;;;14.45;9.13;;;;;;;23.78;58.91;99733.89;1822301;76;23310;-59
2021/08/30 07:06:53;;;;;;;13.40;8.15;;;;;;;23.86;59.07;99727.70;1824269;76;21066;-59
2021/08/30 07:09:20;;;;;;;11.73;8.38;;;;;;;23.96;59.20;99720.99;1824705;76;21011;-59
2021/08/30 07:11:47;;;;;;;14.33;9.20;;;;;;;24.05;58.81;99719.08;1821278;76;21568;-61
2021/08/30 07:14:16;;;;;;;13.30;9.40;;;;;;;24.13;58.07;99723.33;1826527;76;21615;-59
2021/08/30 07:16:42;;;;;;;14.68;9.40;;;;;;;24.19;57.98;99724.27;1824792;76;21464;-59
2021/08/30 07:19:09;;;;;;;12.37;8.95;;;;;;;24.25;57.60;99728.20;1825805;76;21444;-60
2021/08/30 07:21:37;;;;;;;12.65;9.48;;;;;;;24.33;57.56;99730.30;1823494;76;21463;-59
2021/08/30 07:24:04;;;;;;;13.93;9.50;;;;;;;24.37;57.49;99718.02;1823432;76;21023;-58
2021/08/30 07:26:30;;;;;;;14.85;10.23;;;;;;;24.43;57.58;99719.80;1820015;77;21050;-58
2021/08/30 07:28:57;;;;;;;15.78;9.58;;;;;;;24.47;57.12;99724.47;1824512;76;21113;-59
2021/08/30 07:31:23;;;;;;;11.20;9.10;;;;;;;24.52;57.02;99717.59;1822757;76;21421;-59
2021/08/30 07:33:50;;;;;;;10.58;7.83;;;;;;;24.56;56.97;99718.28;1801894;76;21393;-59
2021/08/30 07:36:16;;;;;;;18.87;9.13;;;;;;;24.68;56.97;99721.50;1801034;76;21438;-59
2021/08/30 07:38:43;;;;;;;11.70;9.40;;;;;;;24.84;56.66;99717.59;1822613;77;21508;-59
2021/08/30 07:41:10;;;;;;;13.48;9.05;;;;;;;25.00;55.88;99722.02;1823606;76;21153;-59
2021/08/30 07:43:36;;;;;;;11.83;8.95;;;;;;;25.07;55.75;99716.52;1793865;77;21042;-59
2021/08/30 07:46:02;;;;;;;17.23;9.80;;;;;;;25.13;55.92;99718.24;1796833;77;21635;-59
2021/08/30 07:48:31;;;;;;;13.68;9.85;;;;;;;25.18;55.75;99710.28;1823809;76;21091;-59
2021/08/30 07:50:57;;;;;;;12.58;8.75;;;;;;;25.23;55.70;99717.13;1773493;76;21114;-59
2021/08/30 07:53:27;;;;;;;15.48;9.55;;;;;;;25.25;55.35;99711.00;1821815;76;21141;-59
2021/08/30 07:55:53;;;;;;;12.60;10.05;;;;;;;25.26;55.32;99711.80;1822060;76;21121;-59
2021/08/30 07:58:20;;;;;;;17.60;9.58;;;;;;;25.22;55.60;99707.42;1793268;77;20959;-59
2021/08/30 08:00:46;;;;;;;20.20;10.15;;;;;;;25.20;55.98;99717.08;1823599;76;21350;-59
2021/08/30 08:03:13;;;;;;;17.30;9.88;;;;;;;25.19;55.78;99724.85;1790993;76;21061;-59
2021/08/30 08:05:39;;;;;;;12.73;9.35;;;;;;;25.19;55.89;99715.43;1821957;76;21082;-59
2021/08/30 08:08:06;;;;;;;16.52;10.82;;;;;;;25.19;55.68;99714.62;1822667;76;21082;-59
2021/08/30 08:10:34;;;;;;;13.85;9.65;;;;;;;25.20;55.89;99722.46;1827381;76;21299;-59
2021/08/30 08:13:02;;;;;;;14.40;9.53;;;;;;;25.25;56.19;99722.27;1823276;76;21093;-59
2021/08/30 08:15:29;;;;;;;15.15;9.70;;;;;;;25.32;56.18;99715.75;1820836;76;21073;-58
2021/08/30 08:17:55;;;;;;;14.47;10.80;;;;;;;25.45;56.05;99712.50;1825994;76;21141;-57
2021/08/30 08:20:21;;;;;;;12.00;9.83;;;;;;;25.54;55.70;99721.87;1821130;76;21455;-58
2021/08/30 08:22:47;;;;;;;17.00;12.37;;;;;;;25.62;55.77;99712.07;1829951;76;21066;-57
2021/08/30 08:25:15;;;;;;;16.30;12.75;;;;;;;25.70;55.61;99705.47;1826492;76;21660;-59
2021/08/30 08:27:43;;;;;;;13.10;9.48;;;;;;;25.76;55.43;99726.89;1827898;76;21014;-60
2021/08/30 08:30:10;;;;;;;13.98;10.28;;;;;;;25.83;54.90;99734.02;1831378;76;21121;-58
2021/08/30 08:32:38;;;;;;;13.95;9.98;;;;;;;25.87;55.12;99712.27;1805353;76;21042;-58
2021/08/30 08:35:07;;;;;;;16.93;11.00;;;;;;;25.90;54.75;99709.90;1825926;76;21030;-59
2021/08/30 08:37:33;;;;;;;14.15;11.38;;;;;;;25.89;54.79;99705.59;1829090;76;21509;-59
2021/08/30 08:40:00;;;;;;;15.53;10.58;;;;;;;25.90;55.18;99705.05;1833844;77;21077;-59
2021/08/30 08:42:26;;;;;;;14.98;10.00;;;;;;;25.93;55.06;99705.92;1826179;76;21101;-58
2021/08/30 08:44:53;;;;;;;14.70;9.98;;;;;;;25.99;54.95;99701.47;1828258;76;21090;-59
2021/08/30 08:47:19;;;;;;;15.55;10.80;;;;;;;26.07;54.91;99701.08;1793937;77;21076;-59
2021/08/30 08:49:52;;;;;;;13.98;9.85;;;;;;;26.13;54.68;99702.28;1826342;76;21039;-57
2021/08/30 08:52:21;;;;;;;18.42;11.05;;;;;;;26.17;54.47;99699.91;1808913;76;21588;-58
2021/08/30 08:54:48;;;;;;;15.25;9.73;;;;;;;26.19;54.19;99701.02;1830409;76;21103;-59
2021/08/30 08:57:14;;;;;;;14.00;10.15;;;;;;;26.22;54.25;99691.10;1808261;77;21059;-59
2021/08/30 09:00:05;;;;;;;14.38;10.45;;;;;;;26.25;54.30;99690.63;1833316;77;21046;-58
2021/08/30 09:02:34;;;;;;;16.17;11.22;;;;;;;26.25;54.18;99696.82;1727425;81;21680;-58
2021/08/30 09:05:01;;;;;;;15.65;10.32;;;;;;;26.28;54.52;99693.64;1775944;77;21061;-57
2021/08/30 09:07:40;;;;;;;13.58;9.40;;;;;;;26.35;54.41;99683.24;1828528;76;21043;-57
2021/08/30 09:10:17;;;;;;;14.55;10.80;;;;;;;26.45;54.68;99681.52;1807234;76;21402;-57
2021/08/30 09:12:44;;;;;;;16.42;10.95;;;;;;;26.56;54.25;99680.33;1831132;76;21487;-65
2021/08/30 09:15:20;;;;;;;13.08;10.58;;;;;;;26.58;54.09;99679.55;1801253;76;21115;-57
2021/08/30 09:17:55;;;;;;;12.98;10.70;;;;;;;26.63;53.96;99673.75;1834663;76;21037;-57
2021/08/30 09:20:30;;;;;;;16.62;11.30;;;;;;;26.68;53.69;99668.44;1833795;76;21214;-56
2021/08/30 09:22:56;;;;;;;16.00;10.93;;;;;;;26.72;53.65;99674.15;1829921;76;21058;-57
2021/08/30 09:25:23;;;;;;;15.48;11.48;;;;;;;26.78;53.80;99668.28;1829498;76;21062;-57
2021/08/30 09:27:51;;;;;;;14.00;11.25;;;;;;;26.85;53.49;99673.80;1780078;77;21148;-57
2021/08/30 09:30:24;;;;;;;15.68;11.08;;;;;;;26.91;53.47;99668.48;1829537;76;21978;-58
2021/08/30 09:32:51;;;;;;;15.75;10.05;;;;;;;26.94;53.36;99654.49;1832194;76;21114;-58
2021/08/30 09:35:18;;;;;;;17.32;11.40;;;;;;;26.95;53.10;99654.25;1831011;76;21041;-58
2021/08/30 09:37:45;;;;;;;11.73;9.20;;;;;;;26.95;53.11;99670.45;1828271;76;21572;-57
2021/08/30 09:40:15;;;;;;;20.45;10.50;;;;;;;26.96;53.29;99655.05;1825832;76;21465;-57
2021/08/30 09:42:54;;;;;;;14.15;11.55;;;;;;;26.99;52.78;99639.71;1832120;76;21062;-57
2021/08/30 09:45:26;;;;;;;13.88;11.78;;;;;;;26.99;52.50;99634.31;1802291;77;21096;-58
2021/08/30 09:47:59;;;;;;;15.20;11.05;;;;;;;26.97;53.08;99671.00;1822158;76;21062;-55
2021/08/30 09:50:38;;;;;;;14.98;10.20;;;;;;;26.97;53.18;99670.20;1809664;76;21704;-57
2021/08/30 09:53:05;;;;;;;15.28;11.83;;;;;;;27.00;53.48;99648.08;1819853;76;21678;-58
2021/08/30 09:55:32;;;;;;;16.45;10.53;;;;;;;27.08;53.37;99659.80;1827058;76;21587;-58
2021/08/30 09:57:59;;;;;;;13.60;11.22;;;;;;;27.18;53.44;99671.27;1825728;76;21122;-59
2021/08/30 10:00:26;;;;;;;14.78;10.53;;;;;;;27.29;53.38;99677.67;1831075;76;20956;-58
2021/08/30 10:02:54;;;;;;;12.85;10.63;;;;;;;27.37;53.53;99684.80;1822214;76;21066;-59
2021/08/30 10:05:22;;;;;;;16.57;11.80;;;;;;;27.45;53.11;99674.07;1825649;76;21054;-58
2021/08/30 10:07:48;;;;;;;15.72;11.00;;;;;;;27.51;52.94;99682.53;1800733;76;21003;-58
2021/08/30 10:10:16;;;;;;;14.35;10.78;;;;;;;27.56;52.96;99684.48;1828694;76;21091;-58
2021/08/30 10:12:44;;;;;;;15.13;10.82;;;;;;;27.58;52.90;99672.34;1830171;76;21105;-58
2021/08/30 10:15:12;;;;;;;15.30;10.85;;;;;;;27.60;53.26;99681.03;1825867;76;21035;-59
2021/08/30 10:17:44;;;;;;;16.42;11.28;;;;;;;27.58;53.22;99681.80;1826296;76;21113;-59
2021/08/30 10:20:20;;;;;;;13.10;10.43;;;;;;;27.60;53.66;99672.09;1798387;77;21429;-58
2021/08/30 10:23:06;;;;;;;13.75;10.78;;;;;;;27.60;53.49;99678.33;1803501;77;21096;-57
2021/08/30 10:25:35;;;;;;;14.73;10.82;;;;;;;27.61;53.46;99672.38;1804411;77;21077;-58
2021/08/30 10:28:07;;;;;;;14.90;11.93;;;;;;;27.66;53.61;99673.79;1828281;76;21029;-58
2021/08/30 10:30:36;;;;;;;14.75;9.95;;;;;;;27.69;54.05;99682.75;1824628;76;21508;-57
2021/08/30 10:33:06;;;;;;;15.85;11.03;;;;;;;27.78;54.07;99675.00;1823929;76;21841;-58
2021/08/30 10:35:35;;;;;;;14.45;10.65;;;;;;;27.90;53.33;99675.66;1824598;76;23247;-59
2021/08/30 10:38:06;;;;;;;12.98;10.23;;;;;;;28.02;53.15;99662.56;1825344;76;21340;-58
2021/08/30 10:40:38;;;;;;;15.60;11.33;;;;;;;28.10;52.87;99668.31;1833021;76;21541;-58
2021/08/30 10:43:13;;;;;;;17.37;10.98;;;;;;;28.17;52.56;99659.99;1831124;76;21525;-57
2021/08/30 10:45:57;;;;;;;15.30;11.22;;;;;;;28.27;52.17;99667.39;1832352;76;20993;-59
2021/08/30 10:48:40;;;;;;;17.50;12.00;;;;;;;28.37;52.15;99674.23;1809692;77;21770;-59
2021/08/30 10:51:21;;;;;;;18.73;11.50;;;;;;;28.41;51.21;99678.07;1835725;76;21077;-59
2021/08/30 10:53:59;;;;;;;12.78;10.32;;;;;;;28.45;51.29;99659.42;1804552;77;21554;-60
2021/08/30 10:56:29;;;;;;;14.80;11.00;;;;;;;28.55;51.18;99645.97;1830611;76;21097;-59
2021/08/30 10:59:04;;;;;;;14.07;10.10;;;;;;;28.63;50.83;99649.58;1830442;76;21105;-59
2021/08/30 11:01:27;;;;;;;12.30;10.68;;;;;;;28.72;50.43;99658.83;1830831;76;21446;-58
2021/08/30 11:03:55;;;;;;;17.23;10.63;;;;;;;28.79;50.38;99664.56;1828848;76;21070;-59
2021/08/30 11:06:22;;;;;;;15.93;10.80;;;;;;;28.84;50.35;99669.46;1800383;76;21440;-59
2021/08/30 11:08:48;;;;;;;14.23;10.28;;;;;;;28.88;50.57;99681.41;1832540;76;21132;-60
2021/08/30 11:11:21;;;;;;;13.25;10.68;;;;;;;28.99;50.50;99671.45;1829395;76;21001;-59
2021/08/30 11:14:08;;;;;;;14.45;11.15;;;;;;;29.05;50.36;99670.41;1830317;76;21089;-59
2021/08/30 11:16:37;;;;;;;16.05;10.58;;;;;;;29.12;50.07;99661.20;1825613;76;21033;-59
2021/08/30 11:19:13;;;;;;;17.07;10.93;;;;;;;29.14;49.54;99663.14;1828532;76;21071;-59
2021/08/30 11:21:54;;;;;;;14.55;11.75;;;;;;;29.17;49.93;99666.69;1826440;76;21706;-59
2021/08/30 11:24:35;;;;;;;13.83;11.63;;;;;;;29.18;49.84;99666.97;1799327;76;21678;-59
2021/08/30 11:27:19;;;;;;;17.70;11.50;;;;;;;29.20;50.22;99660.73;1825472;76;21937;-59
2021/08/30 11:29:48;;;;;;;19.20;10.15;;;;;;;29.27;50.27;99661.34;1825151;76;20983;-59
2021/08/30 11:32:16;;;;;;;13.65;10.32;;;;;;;29.37;49.90;99670.02;1825635;76;21039;-58
2021/08/30 11:34:42;;;;;;;14.35;10.35;;;;;;;29.50;48.74;99666.83;1818904;76;21094;-58
2021/08/30 11:37:12;;;;;;;16.48;10.78;;;;;;;29.54;48.13;99656.27;1827908;76;21343;-57
2021/08/30 11:39:40;;;;;;;13.45;9.90;;;;;;;29.58;48.13;99668.22;1825979;76;21092;-58
2021/08/30 11:42:10;;;;;;;15.25;9.68;;;;;;;29.63;48.20;99656.03;1795794;78;21393;-61
2021/08/30 11:44:37;;;;;;;17.55;10.70;;;;;;;29.68;47.94;99656.05;1830913;76;21398;-58
2021/08/30 11:47:09;;;;;;;19.07;10.68;;;;;;;29.77;48.06;99659.91;1822586;76;21818;-58